Arvada, CO (80002)

2:44 AM MST on December 29, 2014 (GMT -0700)
AFPD Station 6 | Change Station
CLOSE
Current Station
Personal Weather Station
Location: Arvada, CO
Elevation: 5492 ft
Nearby Weather Stations
Active Advisory: Winter Weather Advisory

Elev 5492 ft 39.81 °N, 105.13 °W | Updated 7 minutes ago

Overcast
Overcast
18.6 °F
Feels Like 19 °F
N
0.0
Wind Variable Wind from NNW
Gusts 3.0 mph

Today
High -- | Low -- °F
--% Chance of Precip.
Yesterday
High -- | Low -- °F
Precip. -- in
7:21 AM 4:44 PM
First Quarter, 57% visible
Pressure 29.98 in
Visibility 10.0 miles
Clouds Overcast 11000 ft
Windchill 19 °F
Dew Point 10 °F
Humidity 68%
Rainfall 0.03 in
Snow Depth Not available.
UV 0.0 out of 12
Pollen .10 out of 12
Air Quality Not available.
Flu Activity Not available.
METAR KBJC 290935Z AUTO 33008KT 10SM OVC110 M07/M12 A2998 RMK AO2

More Conditions Fewer Conditions

Pressure 29.98 in
Visibility 10.0 miles
Clouds Overcast 11000 ft
Windchill 19 °F
Dew Point 10 °F
Humidity 68%
Rainfall 0.03 in
Snow Depth Not available.
UV 0.0 out of 12
Pollen .10 out of 12
Air Quality Not available.
Flu Activity Not available.
METAR KBJC 290935Z AUTO 33008KT 10SM OVC110 M07/M12 A2998 RMK AO2

More Conditions Fewer Conditions

10-Day Weather Forecast

Almanac

Astronomy

Dec. 29, 2014 Rise Set
Actual Time
Civil Twilight
Nautical Twilight
Astronomical Twilight
Moon
Length of Visible Light
Length of Day
Tomorrow will be .
, % of the Moon is Illuminated

Today's Extremes

State Highs State Lows

Community

WunderPhotos

Upload Photos

1,781,562 photos uploaded!

WunderBlogs® & News

Nearby

Air Quality

  Air Quality AQ Index Pollutant
Not available.

Snow Depth

Station Depth Elevation

Earthquake Activity

City Distance Mag. Time & Date
Minimum magnitude displayed is 2.5.

Coastal Water Temperatures

Place Temperature

Nearby Weather Stations